Time;durP1;ratioP1;P1;durP2;ratioP2;P2;SDS_P1;SDS_P2;PMS_P1;PMS_P2;Temp;Humidity;BMP_temperature;BMP_pressure;BME280_temperature;BME280_humidity;BME280_pressure;Samples;Min_cycle;Max_cycle;Signal;HPM_P1;HPM_P2
2023/07/02 00:02:28;;;;;;;1.38;1.38;;;;;;;;;;10280459;28;20344;-77
2023/07/02 00:07:29;;;;;;;3.40;1.35;;;;;;;;;;10297321;28;20279;-76
2023/07/02 00:12:30;;;;;;;1.20;1.20;;;;;;;;;;10298639;28;20613;-77
2023/07/02 00:17:31;;;;;;;0.98;0.93;;;;;;;;;;10272644;28;20225;-77
2023/07/02 00:22:36;;;;;;;1.23;1.23;;;;;;;;;;10270699;28;20209;-75
2023/07/02 00:27:38;;;;;;;1.10;1.10;;;;;;;;;;10291809;28;20729;-77
2023/07/02 00:32:39;;;;;;;1.20;1.20;;;;;;;;;;10280165;28;20299;-76
2023/07/02 00:37:40;;;;;;;1.00;1.00;;;;;;;;;;10255175;28;20224;-77
2023/07/02 00:42:41;;;;;;;0.63;0.63;;;;;;;;;;10270351;28;20212;-74
2023/07/02 00:47:42;;;;;;;1.05;1.05;;;;;;;;;;10271221;28;20830;-78
2023/07/02 00:52:43;;;;;;;1.52;0.90;;;;;;;;;;10268047;28;20583;-77
2023/07/02 00:57:46;;;;;;;1.15;1.05;;;;;;;;;;10249213;28;20259;-74
2023/07/02 01:02:57;;;;;;;1.48;0.95;;;;;;;;;;10265657;28;20209;-75
2023/07/02 01:07:58;;;;;;;1.30;1.20;;;;;;;;;;10266603;28;20224;-74
2023/07/02 01:13:02;;;;;;;1.60;1.60;;;;;;;;;;10269817;28;20210;-76
2023/07/02 01:18:04;;;;;;;1.75;1.23;;;;;;;;;;10281545;28;20227;-75
2023/07/02 01:23:05;;;;;;;3.75;1.58;;;;;;;;;;10253804;28;20245;-75
2023/07/02 01:28:06;;;;;;;1.27;1.27;;;;;;;;;;10270222;28;20213;-75
2023/07/02 01:33:07;;;;;;;1.52;1.52;;;;;;;;;;10264460;28;20222;-75
2023/07/02 01:38:08;;;;;;;1.63;1.52;;;;;;;;;;10281885;28;20221;-75
2023/07/02 01:43:09;;;;;;;1.88;1.77;;;;;;;;;;10267740;28;20263;-76
2023/07/02 01:48:10;;;;;;;1.10;1.10;;;;;;;;;;10286842;28;21245;-75
2023/07/02 01:53:11;;;;;;;1.02;1.02;;;;;;;;;;10274122;28;20216;-75
2023/07/02 01:58:12;;;;;;;1.30;1.30;;;;;;;;;;10288386;28;20225;-77
2023/07/02 02:03:13;;;;;;;1.05;1.05;;;;;;;;;;10289933;28;20586;-75
2023/07/02 02:08:14;;;;;;;1.20;1.20;;;;;;;;;;10266080;28;20228;-75
2023/07/02 02:13:15;;;;;;;3.25;1.17;;;;;;;;;;10292628;28;20280;-77
2023/07/02 02:18:16;;;;;;;1.20;1.20;;;;;;;;;;10277107;28;20307;-77
2023/07/02 02:23:17;;;;;;;1.00;1.00;;;;;;;;;;10271057;28;20213;-76
2023/07/02 02:28:18;;;;;;;1.20;1.20;;;;;;;;;;10290140;28;20222;-74
2023/07/02 02:33:19;;;;;;;1.75;1.00;;;;;;;;;;10264120;28;22018;-75
2023/07/02 02:38:20;;;;;;;1.15;1.15;;;;;;;;;;10271484;28;20229;-77
2023/07/02 02:43:22;;;;;;;1.25;1.25;;;;;;;;;;10289191;28;20216;-74
2023/07/02 02:48:25;;;;;;;1.00;1.00;;;;;;;;;;10277564;28;20244;-76
2023/07/02 02:53:26;;;;;;;2.13;1.08;;;;;;;;;;10265622;28;20286;-77
2023/07/02 02:58:27;;;;;;;0.85;0.85;;;;;;;;;;10283550;28;20217;-75
2023/07/02 03:03:29;;;;;;;0.82;0.82;;;;;;;;;;10293820;28;20224;-75
2023/07/02 03:08:29;;;;;;;0.90;0.60;;;;;;;;;;10298565;28;20267;-75
2023/07/02 03:13:30;;;;;;;0.85;0.85;;;;;;;;;;10284415;28;20221;-75
2023/07/02 03:18:32;;;;;;;0.60;0.60;;;;;;;;;;10282044;28;20323;-75
2023/07/02 03:23:32;;;;;;;0.70;0.70;;;;;;;;;;10299041;28;20259;-77
2023/07/02 03:28:34;;;;;;;0.70;0.70;;;;;;;;;;10286610;28;20220;-75
2023/07/02 03:33:35;;;;;;;1.23;0.60;;;;;;;;;;10280731;28;20214;-74
2023/07/02 03:38:36;;;;;;;0.68;0.68;;;;;;;;;;10274524;28;20248;-75
2023/07/02 03:43:37;;;;;;;0.50;0.50;;;;;;;;;;10278381;28;20209;-74
2023/07/02 03:48:38;;;;;;;1.08;0.60;;;;;;;;;;10260436;28;20931;-76
2023/07/02 03:53:39;;;;;;;0.63;0.63;;;;;;;;;;10282946;28;20721;-74
2023/07/02 03:58:41;;;;;;;0.60;0.60;;;;;;;;;;10287991;28;20314;-74
2023/07/02 04:03:49;;;;;;;4.38;0.80;;;;;;;;;;10283651;28;20217;-75
2023/07/02 04:08:50;;;;;;;1.45;0.70;;;;;;;;;;10288461;28;20236;-75
2023/07/02 04:13:52;;;;;;;1.55;0.93;;;;;;;;;;10296023;28;20300;-74
2023/07/02 04:18:53;;;;;;;0.60;0.60;;;;;;;;;;10290348;28;20264;-74
2023/07/02 04:23:54;;;;;;;1.35;0.80;;;;;;;;;;10297836;28;20709;-76
2023/07/02 04:28:55;;;;;;;0.95;0.95;;;;;;;;;;10289199;28;20221;-75
2023/07/02 04:33:56;;;;;;;1.00;1.00;;;;;;;;;;10290169;28;20778;-75
2023/07/02 04:38:57;;;;;;;1.00;1.00;;;;;;;;;;10289411;28;20275;-76
2023/07/02 04:43:58;;;;;;;1.85;0.80;;;;;;;;;;10286137;28;20229;-76
2023/07/02 04:48:58;;;;;;;0.80;0.80;;;;;;;;;;10291365;28;20235;-75
2023/07/02 04:54:00;;;;;;;0.90;0.90;;;;;;;;;;10290760;28;20684;-74
2023/07/02 04:59:00;;;;;;;0.50;0.50;;;;;;;;;;10291961;28;20278;-75
2023/07/02 05:04:01;;;;;;;0.80;0.80;;;;;;;;;;10272889;28;20852;-76
2023/07/02 05:09:02;;;;;;;2.25;0.93;;;;;;;;;;10286438;28;20237;-76
2023/07/02 05:14:03;;;;;;;0.90;0.90;;;;;;;;;;10287418;28;20217;-76
2023/07/02 05:19:05;;;;;;;1.00;0.98;;;;;;;;;;10289715;28;20573;-74
2023/07/02 05:24:06;;;;;;;0.80;0.80;;;;;;;;;;10286202;28;20837;-76
2023/07/02 05:29:08;;;;;;;0.93;0.93;;;;;;;;;;10282134;28;20625;-74
2023/07/02 05:34:09;;;;;;;0.98;0.98;;;;;;;;;;10300916;28;20221;-74
2023/07/02 05:39:10;;;;;;;0.75;0.75;;;;;;;;;;10281899;28;20246;-75
2023/07/02 05:44:11;;;;;;;0.70;0.70;;;;;;;;;;10271354;28;20597;-76
2023/07/02 05:49:12;;;;;;;0.80;0.80;;;;;;;;;;10284061;28;20590;-75
2023/07/02 05:54:13;;;;;;;1.20;0.95;;;;;;;;;;10289756;28;20224;-75
2023/07/02 05:59:17;;;;;;;1.20;1.20;;;;;;;;;;10268257;28;20292;-75
2023/07/02 06:04:18;;;;;;;1.02;1.02;;;;;;;;;;10279644;28;20221;-74
2023/07/02 06:09:19;;;;;;;1.40;1.30;;;;;;;;;;10282173;28;20487;-74
2023/07/02 06:14:21;;;;;;;1.35;1.35;;;;;;;;;;10268624;28;20236;-75
2023/07/02 06:19:22;;;;;;;1.50;1.50;;;;;;;;;;10265485;28;21262;-75
2023/07/02 06:24:23;;;;;;;1.80;1.70;;;;;;;;;;10293398;28;20255;-74
2023/07/02 06:29:24;;;;;;;1.55;1.55;;;;;;;;;;10296721;28;20303;-76
2023/07/02 06:34:25;;;;;;;1.95;1.50;;;;;;;;;;10277425;28;20241;-75
2023/07/02 06:39:26;;;;;;;1.40;1.40;;;;;;;;;;10259354;28;20225;-75
2023/07/02 06:44:27;;;;;;;1.60;1.60;;;;;;;;;;10297966;28;20208;-76
2023/07/02 06:49:28;;;;;;;2.65;2.55;;;;;;;;;;10282222;28;20694;-76
2023/07/02 06:54:29;;;;;;;1.83;1.83;;;;;;;;;;10282949;28;20217;-75
2023/07/02 06:59:30;;;;;;;2.15;2.10;;;;;;;;;;10297479;28;20263;-76
2023/07/02 07:04:31;;;;;;;3.67;2.33;;;;;;;;;;10290225;28;20206;-76
2023/07/02 07:09:32;;;;;;;3.20;3.00;;;;;;;;;;10293506;28;20236;-76
2023/07/02 07:14:33;;;;;;;2.88;2.78;;;;;;;;;;10291919;28;20246;-76
2023/07/02 07:19:34;;;;;;;3.15;2.95;;;;;;;;;;10281319;28;20295;-79
2023/07/02 07:24:35;;;;;;;3.60;3.40;;;;;;;;;;10283159;28;20786;-76
2023/07/02 07:29:36;;;;;;;4.72;4.28;;;;;;;;;;10290447;28;20228;-80
2023/07/02 07:34:37;;;;;;;6.68;4.05;;;;;;;;;;10283491;28;20218;-77
2023/07/02 07:39:38;;;;;;;4.15;3.85;;;;;;;;;;10283060;28;20718;-75
2023/07/02 07:44:39;;;;;;;4.47;4.18;;;;;;;;;;10294260;28;20308;-78
2023/07/02 07:49:40;;;;;;;4.30;3.92;;;;;;;;;;10289500;28;20224;-77
2023/07/02 07:54:41;;;;;;;4.10;3.80;;;;;;;;;;10286605;28;20762;-76
2023/07/02 07:59:42;;;;;;;3.63;3.42;;;;;;;;;;10288462;28;20213;-75
2023/07/02 08:04:44;;;;;;;3.40;3.25;;;;;;;;;;10288697;28;20275;-76
2023/07/02 08:09:45;;;;;;;3.60;3.40;;;;;;;;;;10246379;28;1019304;-76
2023/07/02 08:14:46;;;;;;;4.80;2.63;;;;;;;;;;10269886;28;20213;-81
2023/07/02 08:19:47;;;;;;;3.35;2.05;;;;;;;;;;10279998;28;20224;-79
2023/07/02 08:24:49;;;;;;;2.17;2.08;;;;;;;;;;10283655;28;20691;-78
2023/07/02 08:29:50;;;;;;;2.67;2.58;;;;;;;;;;10272028;28;20721;-78
2023/07/02 08:34:51;;;;;;;2.17;2.08;;;;;;;;;;10280932;28;20271;-78
2023/07/02 08:39:52;;;;;;;3.60;2.17;;;;;;;;;;10281177;28;20650;-79
2023/07/02 08:44:55;;;;;;;2.45;2.13;;;;;;;;;;10282846;28;20217;-77
2023/07/02 08:49:56;;;;;;;2.08;1.90;;;;;;;;;;10273375;28;20229;-77
2023/07/02 08:54:57;;;;;;;5.20;2.58;;;;;;;;;;10282039;28;20325;-75
2023/07/02 08:59:58;;;;;;;4.45;2.35;;;;;;;;;;10285297;28;20225;-75
2023/07/02 09:04:59;;;;;;;5.75;2.58;;;;;;;;;;10283743;28;20215;-78
2023/07/02 09:10:00;;;;;;;4.78;2.47;;;;;;;;;;10269884;28;20236;-74
2023/07/02 09:15:03;;;;;;;4.30;2.53;;;;;;;;;;10286565;28;20221;-75
2023/07/02 09:20:08;;;;;;;6.03;2.22;;;;;;;;;;10282042;28;20312;-75
2023/07/02 09:25:11;;;;;;;6.20;2.50;;;;;;;;;;10272130;28;20210;-77
2023/07/02 09:30:13;;;;;;;2.33;2.22;;;;;;;;;;10282254;28;20212;-75
2023/07/02 09:35:14;;;;;;;3.72;3.03;;;;;;;;;;10277559;28;20181;-76
2023/07/02 09:40:17;;;;;;;3.40;2.13;;;;;;;;;;10276431;28;21556;-75
2023/07/02 09:45:19;;;;;;;3.13;2.55;;;;;;;;;;10282761;28;20190;-74
2023/07/02 09:50:20;;;;;;;7.55;2.33;;;;;;;;;;10280707;28;20691;-75
2023/07/02 09:55:22;;;;;;;6.47;2.33;;;;;;;;;;10273681;28;20229;-75
2023/07/02 10:00:23;;;;;;;5.25;2.55;;;;;;;;;;10281584;28;20309;-74
2023/07/02 10:05:30;;;;;;;5.22;2.53;;;;;;;;;;10275252;28;20217;-78
2023/07/02 10:10:32;;;;;;;8.32;2.35;;;;;;;;;;10284525;28;20733;-75
2023/07/02 10:15:37;;;;;;;5.25;2.15;;;;;;;;;;10283265;28;20244;-74
2023/07/02 10:20:39;;;;;;;5.85;2.42;;;;;;;;;;10294927;28;20656;-75
2023/07/02 10:25:40;;;;;;;7.75;2.75;;;;;;;;;;10271958;28;20818;-76
2023/07/02 10:30:42;;;;;;;6.13;2.72;;;;;;;;;;10282908;28;20979;-75
2023/07/02 10:35:44;;;;;;;6.60;2.95;;;;;;;;;;10285069;28;20225;-77
2023/07/02 10:40:45;;;;;;;3.92;2.67;;;;;;;;;;10263925;28;20255;-79
2023/07/02 10:45:46;;;;;;;7.85;2.33;;;;;;;;;;10273263;28;20311;-76
2023/07/02 10:50:48;;;;;;;4.82;2.75;;;;;;;;;;10284384;28;21304;-78
2023/07/02 10:55:55;;;;;;;3.78;2.75;;;;;;;;;;10270411;28;20217;-74
2023/07/02 11:00:56;;;;;;;7.03;2.50;;;;;;;;;;10275665;28;20230;-75
2023/07/02 11:05:57;;;;;;;5.82;2.55;;;;;;;;;;10286047;28;20537;-76
2023/07/02 11:11:08;;;;;;;3.28;1.90;;;;;;;;;;10288380;28;20772;-75
2023/07/02 11:16:18;;;;;;;4.00;2.35;;;;;;;;;;10272873;28;20262;-73
2023/07/02 11:21:19;;;;;;;5.75;2.50;;;;;;;;;;10275191;28;20255;-76
2023/07/02 11:26:20;;;;;;;2.47;2.28;;;;;;;;;;10281632;28;20253;-74
2023/07/02 11:31:27;;;;;;;5.53;2.47;;;;;;;;;;10281586;28;20897;-77
2023/07/02 11:36:28;;;;;;;4.95;2.72;;;;;;;;;;10292259;28;20720;-75
2023/07/02 11:41:38;;;;;;;3.10;2.40;;;;;;;;;;10288860;28;20227;-74
2023/07/02 11:46:39;;;;;;;2.45;1.98;;;;;;;;;;10281552;28;20660;-76
2023/07/02 11:51:41;;;;;;;3.45;3.15;;;;;;;;;;10290876;28;20231;-74
2023/07/02 11:56:42;;;;;;;6.63;2.80;;;;;;;;;;10285901;28;20249;-75
2023/07/02 12:01:43;;;;;;;5.22;2.85;;;;;;;;;;10272240;28;20706;-74
2023/07/02 12:06:44;;;;;;;8.38;2.83;;;;;;;;;;10276920;28;20275;-76
2023/07/02 12:11:45;;;;;;;3.45;2.45;;;;;;;;;;10286019;28;20247;-75
2023/07/02 12:16:46;;;;;;;3.40;2.30;;;;;;;;;;10288611;28;20880;-75
2023/07/02 12:21:47;;;;;;;8.52;2.20;;;;;;;;;;10283637;28;20216;-78
2023/07/02 12:26:48;;;;;;;7.85;2.40;;;;;;;;;;10292685;28;20236;-76
2023/07/02 12:31:49;;;;;;;5.90;2.75;;;;;;;;;;10274181;28;20232;-77
2023/07/02 12:36:50;;;;;;;2.58;2.38;;;;;;;;;;10290333;28;20220;-81
2023/07/02 12:41:51;;;;;;;3.15;2.22;;;;;;;;;;10274464;28;20279;-77
2023/07/02 12:46:52;;;;;;;5.45;2.63;;;;;;;;;;10281387;28;20311;-75
2023/07/02 12:51:53;;;;;;;3.78;2.28;;;;;;;;;;10284316;28;20222;-77
2023/07/02 12:56:54;;;;;;;2.88;2.03;;;;;;;;;;10272285;28;20213;-75
2023/07/02 13:01:56;;;;;;;3.50;2.00;;;;;;;;;;10290526;28;20577;-75
2023/07/02 13:06:57;;;;;;;5.15;1.95;;;;;;;;;;10268156;28;20339;-77
2023/07/02 13:11:58;;;;;;;3.95;1.55;;;;;;;;;;10261256;28;20221;-77
2023/07/02 13:17:04;;;;;;;4.55;1.95;;;;;;;;;;10253133;28;20832;-77
2023/07/02 13:22:06;;;;;;;3.40;1.92;;;;;;;;;;10277147;28;20400;-79
2023/07/02 13:27:12;;;;;;;5.28;1.77;;;;;;;;;;10277425;28;20224;-76
2023/07/02 13:32:13;;;;;;;6.00;2.38;;;;;;;;;;10258519;28;20320;-82
2023/07/02 13:37:17;;;;;;;1.70;1.60;;;;;;;;;;10272004;28;20226;-79
2023/07/02 13:42:19;;;;;;;2.20;1.63;;;;;;;;;;10276364;28;20251;-77
2023/07/02 13:47:20;;;;;;;2.08;1.75;;;;;;;;;;10273442;28;20225;-80
2023/07/02 13:52:21;;;;;;;2.05;1.95;;;;;;;;;;10278759;28;20888;-74
2023/07/02 13:57:23;;;;;;;2.70;1.60;;;;;;;;;;10267495;28;20221;-76
2023/07/02 14:02:24;;;;;;;5.35;1.80;;;;;;;;;;10281131;28;20216;-76
2023/07/02 14:07:25;;;;;;;1.73;1.63;;;;;;;;;;10270661;28;20832;-80
2023/07/02 14:12:27;;;;;;;4.68;1.55;;;;;;;;;;10286655;28;20227;-78
2023/07/02 14:17:28;;;;;;;3.90;1.88;;;;;;;;;;10279462;28;20272;-80
2023/07/02 14:22:29;;;;;;;3.30;2.28;;;;;;;;;;10284400;28;20823;-78
2023/07/02 14:27:30;;;;;;;3.95;1.80;;;;;;;;;;10277911;28;20225;-76
2023/07/02 14:32:31;;;;;;;2.10;1.70;;;;;;;;;;10266456;28;20225;-79
2023/07/02 14:37:32;;;;;;;3.22;1.73;;;;;;;;;;10292075;28;20216;-76
2023/07/02 14:42:33;;;;;;;4.47;1.50;;;;;;;;;;10274935;28;20216;-75
2023/07/02 14:47:34;;;;;;;2.35;1.75;;;;;;;;;;10275322;28;20227;-76
2023/07/02 14:52:36;;;;;;;1.85;1.60;;;;;;;;;;10288983;28;20609;-78
2023/07/02 14:57:37;;;;;;;2.60;2.03;;;;;;;;;;10278069;28;20248;-78
2023/07/02 15:02:38;;;;;;;2.05;1.90;;;;;;;;;;10276939;28;20248;-77
2023/07/02 15:07:39;;;;;;;2.25;2.05;;;;;;;;;;10290739;28;20320;-77
2023/07/02 15:12:40;;;;;;;3.65;2.03;;;;;;;;;;10297158;28;20213;-76
2023/07/02 15:17:41;;;;;;;1.55;1.45;;;;;;;;;;10278295;28;20224;-76
2023/07/02 15:22:42;;;;;;;2.50;1.90;;;;;;;;;;10283808;28;20220;-77
2023/07/02 15:27:43;;;;;;;5.07;2.45;;;;;;;;;;10276899;28;20744;-76
2023/07/02 15:32:44;;;;;;;4.20;2.40;;;;;;;;;;10286186;28;20248;-75
2023/07/02 15:37:45;;;;;;;5.15;2.05;;;;;;;;;;10274210;28;20221;-77
2023/07/02 15:42:46;;;;;;;3.70;2.03;;;;;;;;;;10274319;28;20215;-75
2023/07/02 15:47:47;;;;;;;4.25;2.22;;;;;;;;;;10275027;28;21096;-77
2023/07/02 15:52:49;;;;;;;3.95;1.92;;;;;;;;;;10291181;28;20221;-75
2023/07/02 15:57:50;;;;;;;2.00;1.90;;;;;;;;;;10289833;28;20694;-76
2023/07/02 16:02:51;;;;;;;3.22;2.08;;;;;;;;;;10260444;28;20209;-76
2023/07/02 16:07:52;;;;;;;4.60;2.50;;;;;;;;;;10286611;28;20267;-75
2023/07/02 16:12:53;;;;;;;2.13;1.77;;;;;;;;;;10269560;28;20221;-80
2023/07/02 16:17:54;;;;;;;6.10;2.25;;;;;;;;;;10286212;28;21224;-78
2023/07/02 16:22:55;;;;;;;3.20;2.00;;;;;;;;;;10265769;28;20217;-78
2023/07/02 16:27:56;;;;;;;2.85;1.70;;;;;;;;;;10279213;28;20253;-76
2023/07/02 16:32:57;;;;;;;3.00;1.98;;;;;;;;;;10284884;28;20214;-78
2023/07/02 16:37:58;;;;;;;2.85;1.92;;;;;;;;;;10270540;28;20583;-76
2023/07/02 16:42:59;;;;;;;4.47;2.13;;;;;;;;;;10278766;28;20835;-76
2023/07/02 16:48:01;;;;;;;3.15;1.63;;;;;;;;;;10273012;28;20213;-75
2023/07/02 16:53:02;;;;;;;3.03;2.38;;;;;;;;;;10273716;28;20749;-75
2023/07/02 16:58:03;;;;;;;2.10;1.90;;;;;;;;;;10271719;28;20221;-76
2023/07/02 17:03:04;;;;;;;2.17;1.60;;;;;;;;;;10286850;28;20934;-77
2023/07/02 17:08:05;;;;;;;2.70;1.83;;;;;;;;;;10288494;28;20973;-75
2023/07/02 17:13:06;;;;;;;2.83;1.48;;;;;;;;;;10286366;28;20220;-77
2023/07/02 17:18:07;;;;;;;2.15;1.70;;;;;;;;;;10256549;28;20216;-77
2023/07/02 17:23:08;;;;;;;2.67;1.90;;;;;;;;;;10267869;28;20612;-79
2023/07/02 17:28:09;;;;;;;1.63;1.52;;;;;;;;;;10272506;28;20223;-75
2023/07/02 17:33:10;;;;;;;3.38;1.90;;;;;;;;;;10267689;28;20227;-77
2023/07/02 17:38:11;;;;;;;1.80;1.70;;;;;;;;;;10265919;28;21511;-77
2023/07/02 17:43:12;;;;;;;3.15;1.92;;;;;;;;;;10287774;28;20205;-79
2023/07/02 17:48:13;;;;;;;2.10;1.50;;;;;;;;;;10289729;28;20729;-77
2023/07/02 17:53:14;;;;;;;2.42;1.70;;;;;;;;;;10253529;28;20213;-75
2023/07/02 17:58:15;;;;;;;4.63;1.35;;;;;;;;;;10278935;28;20215;-78
2023/07/02 18:03:17;;;;;;;1.60;1.50;;;;;;;;;;10285619;28;20900;-77
2023/07/02 18:08:18;;;;;;;4.15;1.52;;;;;;;;;;10272424;28;20233;-77
2023/07/02 18:13:21;;;;;;;3.75;2.08;;;;;;;;;;10298045;28;20213;-75
2023/07/02 18:18:22;;;;;;;3.28;2.30;;;;;;;;;;10267847;28;20209;-78
2023/07/02 18:23:23;;;;;;;5.15;1.80;;;;;;;;;;10275103;28;20213;-76
2023/07/02 18:28:25;;;;;;;3.88;2.42;;;;;;;;;;10286625;28;20239;-76
2023/07/02 18:33:26;;;;;;;2.08;1.50;;;;;;;;;;10274435;28;20231;-76
2023/07/02 18:38:27;;;;;;;2.90;1.85;;;;;;;;;;10282424;28;20339;-75
2023/07/02 18:43:28;;;;;;;4.53;1.67;;;;;;;;;;10273151;28;20263;-74
2023/07/02 18:48:30;;;;;;;1.25;1.20;;;;;;;;;;10287315;28;20683;-74
2023/07/02 18:53:33;;;;;;;2.35;1.40;;;;;;;;;;10271009;28;20877;-72
2023/07/02 18:58:36;;;;;;;5.50;1.40;;;;;;;;;;10275017;28;20225;-78
2023/07/02 19:03:37;;;;;;;1.05;1.05;;;;;;;;;;10272615;28;20271;-75
2023/07/02 19:08:38;;;;;;;3.80;1.42;;;;;;;;;;10291506;28;20578;-75
2023/07/02 19:13:39;;;;;;;2.10;1.52;;;;;;;;;;10296866;28;20218;-80
2023/07/02 19:18:42;;;;;;;1.85;1.75;;;;;;;;;;10276117;28;20674;-75
2023/07/02 19:23:43;;;;;;;1.58;1.25;;;;;;;;;;10291999;28;20312;-73
2023/07/02 19:28:44;;;;;;;2.00;1.13;;;;;;;;;;10289021;28;20223;-75
2023/07/02 19:33:45;;;;;;;4.70;1.50;;;;;;;;;;10275918;28;20247;-76
2023/07/02 19:38:46;;;;;;;2.10;1.40;;;;;;;;;;10289153;28;20221;-74
2023/07/02 19:43:48;;;;;;;1.85;1.38;;;;;;;;;;10290956;28;20213;-73
2023/07/02 19:48:49;;;;;;;2.08;1.50;;;;;;;;;;10270522;28;20292;-76
2023/07/02 19:53:50;;;;;;;2.15;1.40;;;;;;;;;;10280467;28;20254;-73
2023/07/02 19:58:51;;;;;;;2.75;1.13;;;;;;;;;;10291766;28;20764;-75
2023/07/02 20:03:53;;;;;;;3.72;2.42;;;;;;;;;;10290279;28;20228;-77
2023/07/02 20:08:54;;;;;;;2.60;2.45;;;;;;;;;;10278415;28;20312;-71
2023/07/02 20:13:55;;;;;;;3.17;1.92;;;;;;;;;;10294828;28;20235;-76
2023/07/02 20:18:56;;;;;;;1.77;1.60;;;;;;;;;;10291122;28;20225;-75
2023/07/02 20:23:57;;;;;;;1.90;1.63;;;;;;;;;;10292028;28;20223;-74
2023/07/02 20:28:58;;;;;;;1.90;1.48;;;;;;;;;;10287699;28;20732;-74
2023/07/02 20:33:59;;;;;;;1.67;1.30;;;;;;;;;;10297647;28;20779;-74
2023/07/02 20:39:00;;;;;;;1.70;1.60;;;;;;;;;;10297920;28;20228;-74
2023/07/02 20:44:03;;;;;;;3.20;1.42;;;;;;;;;;10298913;28;20643;-72
2023/07/02 20:49:05;;;;;;;2.03;1.65;;;;;;;;;;10294704;28;20286;-75
2023/07/02 20:54:06;;;;;;;3.90;1.95;;;;;;;;;;10298299;28;20879;-73
2023/07/02 20:59:08;;;;;;;1.50;1.40;;;;;;;;;;10294796;28;21208;-75
2023/07/02 21:04:09;;;;;;;5.85;2.20;;;;;;;;;;10296333;28;20292;-75
2023/07/02 21:09:11;;;;;;;3.22;1.80;;;;;;;;;;10296012;28;20263;-75
2023/07/02 21:14:12;;;;;;;3.15;1.60;;;;;;;;;;10293125;28;20224;-74
2023/07/02 21:19:13;;;;;;;1.63;1.48;;;;;;;;;;10294302;28;20220;-72
2023/07/02 21:24:14;;;;;;;2.65;1.58;;;;;;;;;;10277031;28;20216;-74
2023/07/02 21:29:15;;;;;;;3.15;1.70;;;;;;;;;;10279579;28;20247;-75
2023/07/02 21:34:16;;;;;;;1.77;1.35;;;;;;;;;;10273189;28;20319;-74
2023/07/02 21:39:17;;;;;;;1.92;1.30;;;;;;;;;;10285278;28;20225;-75
2023/07/02 21:44:19;;;;;;;2.83;1.83;;;;;;;;;;10292182;28;20231;-75
2023/07/02 21:49:20;;;;;;;1.25;1.15;;;;;;;;;;10278279;28;20220;-75
2023/07/02 21:54:21;;;;;;;1.35;1.27;;;;;;;;;;10271663;28;20219;-78
2023/07/02 21:59:22;;;;;;;1.67;1.50;;;;;;;;;;10294168;28;20644;-74
2023/07/02 22:04:23;;;;;;;2.58;1.50;;;;;;;;;;10277263;28;20209;-76
2023/07/02 22:09:24;;;;;;;2.20;1.35;;;;;;;;;;10294076;28;21503;-75
2023/07/02 22:14:25;;;;;;;1.58;1.48;;;;;;;;;;10281167;28;20308;-76
2023/07/02 22:19:30;;;;;;;6.00;2.03;;;;;;;;;;10277061;28;20618;-74
2023/07/02 22:24:31;;;;;;;1.83;1.73;;;;;;;;;;10289768;28;20219;-75
2023/07/02 22:29:32;;;;;;;1.83;1.55;;;;;;;;;;10288017;28;20221;-73
2023/07/02 22:34:33;;;;;;;1.77;1.60;;;;;;;;;;10295311;28;20735;-75
2023/07/02 22:39:34;;;;;;;1.88;1.73;;;;;;;;;;10292654;28;20255;-75
2023/07/02 22:44:35;;;;;;;2.65;1.90;;;;;;;;;;10278347;28;20216;-75
2023/07/02 22:49:36;;;;;;;3.53;1.65;;;;;;;;;;10292774;28;20222;-74
2023/07/02 22:54:37;;;;;;;1.42;1.13;;;;;;;;;;10285743;28;20255;-75
2023/07/02 22:59:38;;;;;;;4.55;1.95;;;;;;;;;;10299728;28;20221;-75
2023/07/02 23:04:39;;;;;;;2.42;1.63;;;;;;;;;;10290102;28;21054;-77
2023/07/02 23:09:40;;;;;;;2.17;1.90;;;;;;;;;;10291792;28;20338;-74
2023/07/02 23:14:41;;;;;;;1.88;1.77;;;;;;;;;;10298561;28;20212;-76
2023/07/02 23:19:42;;;;;;;3.28;1.60;;;;;;;;;;10297877;28;20266;-73
2023/07/02 23:24:45;;;;;;;1.83;1.73;;;;;;;;;;10299701;28;20220;-79
2023/07/02 23:29:46;;;;;;;6.07;2.20;;;;;;;;;;10295552;28;20256;-74
2023/07/02 23:34:47;;;;;;;1.25;1.15;;;;;;;;;;10294177;28;20773;-74
2023/07/02 23:39:51;;;;;;;1.70;1.60;;;;;;;;;;10296830;28;20220;-75
2023/07/02 23:44:52;;;;;;;1.88;1.45;;;;;;;;;;10283609;28;20227;-74
2023/07/02 23:49:53;;;;;;;1.88;1.67;;;;;;;;;;10295443;28;20256;-74
2023/07/02 23:54:54;;;;;;;9.52;1.73;;;;;;;;;;10295608;28;20628;-74
2023/07/02 23:59:55;;;;;;;2.97;1.45;;;;;;;;;;10299379;28;20217;-73
